Time;durP1;ratioP1;P1;durP2;ratioP2;P2;SDS_P1;SDS_P2;PMS_P1;PMS_P2;Temp;Humidity;BMP_temperature;BMP_pressure;BME280_temperature;BME280_humidity;BME280_pressure;Samples;Min_cycle;Max_cycle;Signal;HPM_P1;HPM_P2
2022/05/26 00:01:10;;;;;;;10.05;2.35;;;15.30;99.90;;;;;;5017397;28;20221;-69
2022/05/26 00:03:42;;;;;;;7.82;1.98;;;15.20;99.90;;;;;;5017605;28;20037;-69
2022/05/26 00:06:10;;;;;;;5.85;2.15;;;15.30;99.90;;;;;;5017445;28;20306;-68
2022/05/26 00:08:38;;;;;;;7.78;2.10;;;15.20;99.90;;;;;;5017373;28;20048;-71
2022/05/26 00:11:08;;;;;;;8.75;2.20;;;15.10;99.90;;;;;;5000402;28;20109;-70
2022/05/26 00:13:35;;;;;;;7.60;2.47;;;15.20;99.90;;;;;;5016647;28;20044;-71
2022/05/26 00:16:01;;;;;;;10.60;2.67;;;15.10;99.90;;;;;;5017345;28;20030;-69
2022/05/26 00:18:27;;;;;;;11.35;2.45;;;15.20;99.90;;;;;;5016537;28;20357;-69
2022/05/26 00:20:52;;;;;;;8.77;2.45;;;15.20;99.90;;;;;;5017231;28;20044;-71
2022/05/26 00:23:18;;;;;;;6.95;2.30;;;15.30;99.90;;;;;;5016555;28;20433;-73
2022/05/26 00:25:45;;;;;;;8.93;2.40;;;15.30;99.90;;;;;;5017267;28;20367;-68
2022/05/26 00:28:10;;;;;;;9.45;2.47;;;15.30;99.90;;;;;;5000245;28;20034;-67
2022/05/26 00:30:39;;;;;;;8.50;2.67;;;15.30;99.90;;;;;;5017129;28;20037;-71
2022/05/26 00:33:07;;;;;;;7.70;2.50;;;15.30;99.90;;;;;;5016178;28;20436;-71
2022/05/26 00:35:35;;;;;;;9.35;2.45;;;15.30;99.90;;;;;;5016500;28;20057;-67
2022/05/26 00:38:09;;;;;;;14.48;2.95;;;15.10;99.90;;;;;;5016278;28;20084;-69
2022/05/26 00:40:37;;;;;;;9.48;2.83;;;15.00;99.90;;;;;;5017627;28;20034;-71
2022/05/26 00:43:03;;;;;;;12.15;3.25;;;15.00;99.90;;;;;;5016298;28;20072;-71
2022/05/26 00:45:36;;;;;;;8.27;2.67;;;14.90;99.90;;;;;;5016424;28;20038;-70
2022/05/26 00:48:07;;;;;;;7.10;2.67;;;14.90;99.90;;;;;;5017088;28;20041;-69
2022/05/26 00:50:37;;;;;;;10.75;2.90;;;14.90;99.90;;;;;;5016352;28;20095;-70
2022/05/26 00:53:13;;;;;;;9.07;2.45;;;14.90;99.90;;;;;;5017079;28;20029;-71
2022/05/26 00:55:46;;;;;;;9.30;2.83;;;15.00;99.90;;;;;;5017325;28;20049;-69
2022/05/26 00:58:24;;;;;;;11.75;2.97;;;14.80;99.90;;;;;;5017492;28;20294;-69
2022/05/26 01:00:50;;;;;;;10.18;3.03;;;14.70;99.90;;;;;;5016000;28;20050;-68
2022/05/26 01:03:28;;;;;;;13.07;3.30;;;14.70;99.90;;;;;;5016820;28;20033;-68
2022/05/26 01:06:31;;;;;;;13.38;3.10;;;14.70;99.90;;;;;;5017042;28;20030;-73
2022/05/26 01:09:00;;;;;;;11.45;3.20;;;14.80;99.90;;;;;;5004620;28;20046;-67
2022/05/26 01:11:29;;;;;;;12.05;3.00;;;14.80;99.90;;;;;;5016681;28;20018;-67
2022/05/26 01:14:01;;;;;;;15.20;3.20;;;14.80;99.90;;;;;;5015899;28;20095;-70
2022/05/26 01:17:17;;;;;;;14.80;3.80;;;14.90;99.90;;;;;;5016953;28;20378;-69
2022/05/26 01:20:24;;;;;;;11.95;3.10;;;14.90;99.90;;;;;;4976206;28;20038;-72
2022/05/26 01:23:17;;;;;;;12.52;3.35;;;14.90;99.90;;;;;;4960042;28;20046;-69
2022/05/26 01:26:13;;;;;;;15.73;3.45;;;14.80;99.90;;;;;;5014360;28;20054;-71
2022/05/26 01:29:13;;;;;;;18.17;4.03;;;14.80;99.90;;;;;;5016931;28;20061;-69
2022/05/26 01:31:47;;;;;;;16.23;3.38;;;14.70;99.90;;;;;;5016569;28;20042;-70
2022/05/26 01:34:34;;;;;;;18.40;3.95;;;14.80;99.90;;;;;;5015790;28;20065;-69
2022/05/26 01:37:21;;;;;;;14.90;3.80;;;15.00;99.90;;;;;;5017001;28;20045;-71
2022/05/26 01:39:56;;;;;;;18.98;3.58;;;15.00;99.90;;;;;;5015853;28;20456;-71
2022/05/26 01:42:40;;;;;;;13.93;3.58;;;15.00;99.90;;;;;;5017308;28;20318;-70
2022/05/26 01:45:28;;;;;;;17.05;3.25;;;15.00;99.90;;;;;;5003175;28;20137;-71
2022/05/26 01:48:13;;;;;;;15.68;3.33;;;14.90;99.90;;;;;;5020155;28;20033;-71
2022/05/26 01:51:01;;;;;;;12.93;3.67;;;14.80;99.90;;;;;;5020025;28;20057;-70
2022/05/26 01:53:59;;;;;;;13.73;3.45;;;14.90;99.90;;;;;;5020260;28;20096;-72
2022/05/26 01:56:43;;;;;;;14.30;3.33;;;14.90;99.90;;;;;;5019265;28;20101;-72
2022/05/26 01:59:14;;;;;;;12.23;2.90;;;14.90;99.90;;;;;;5019831;28;20033;-72
2022/05/26 02:01:43;;;;;;;17.08;3.60;;;15.00;99.90;;;;;;5018801;28;20310;-68
2022/05/26 02:04:17;;;;;;;18.48;4.43;;;15.00;99.90;;;;;;5019007;28;20306;-69
2022/05/26 02:06:51;;;;;;;11.45;3.42;;;14.90;99.90;;;;;;5020057;28;20038;-71
2022/05/26 02:09:23;;;;;;;15.07;3.63;;;14.90;99.90;;;;;;5019003;28;20394;-72
2022/05/26 02:11:58;;;;;;;14.20;3.20;;;14.80;99.90;;;;;;5020040;28;20045;-71
2022/05/26 02:14:33;;;;;;;17.55;4.15;;;14.80;99.90;;;;;;5019500;28;20029;-69
2022/05/26 02:17:07;;;;;;;18.63;4.18;;;14.90;99.90;;;;;;5019186;28;20088;-69
2022/05/26 02:19:55;;;;;;;15.93;3.90;;;14.80;99.90;;;;;;5018632;28;20026;-70
2022/05/26 02:22:58;;;;;;;14.60;3.38;;;14.90;99.90;;;;;;5019376;28;20120;-71
2022/05/26 02:25:27;;;;;;;12.75;3.28;;;14.80;99.90;;;;;;4998787;28;20034;-71
2022/05/26 02:27:55;;;;;;;17.58;4.50;;;14.80;99.90;;;;;;5019339;28;20378;-67
2022/05/26 02:30:24;;;;;;;20.05;4.50;;;14.70;99.90;;;;;;5019183;28;20041;-68
2022/05/26 02:32:52;;;;;;;14.63;3.92;;;14.80;99.90;;;;;;5018376;28;20092;-69
2022/05/26 02:35:25;;;;;;;16.17;3.75;;;14.70;99.90;;;;;;5019270;28;20033;-71
2022/05/26 02:37:55;;;;;;;16.75;3.50;;;14.60;99.90;;;;;;5018742;28;20350;-70
2022/05/26 02:40:21;;;;;;;16.33;4.03;;;14.60;99.90;;;;;;5019075;28;20033;-68
2022/05/26 02:43:10;;;;;;;16.65;3.85;;;14.60;99.90;;;;;;5018209;28;20412;-70
2022/05/26 02:45:51;;;;;;;17.27;4.50;;;14.50;99.90;;;;;;5019569;28;20042;-70
2022/05/26 02:48:35;;;;;;;14.70;3.75;;;14.50;99.90;;;;;;5018355;28;20049;-70
2022/05/26 02:51:13;;;;;;;22.50;3.97;;;14.70;99.90;;;;;;5001776;28;20038;-71
2022/05/26 02:54:09;;;;;;;18.80;4.18;;;14.60;99.90;;;;;;5001113;28;20038;-71
2022/05/26 02:56:55;;;;;;;16.73;3.97;;;14.50;99.90;;;;;;4994652;28;20038;-68
2022/05/26 02:59:41;;;;;;;23.92;4.72;;;14.50;99.90;;;;;;5018067;28;20357;-70
2022/05/26 03:02:17;;;;;;;18.38;4.28;;;14.60;99.90;;;;;;5008179;28;20137;-70
2022/05/26 03:04:55;;;;;;;17.15;4.20;;;14.50;99.90;;;;;;5018109;28;20291;-73
2022/05/26 03:07:24;;;;;;;24.38;4.70;;;14.60;99.90;;;;;;5018630;28;20041;-72
2022/05/26 03:09:52;;;;;;;17.10;4.05;;;14.70;99.90;;;;;;5018517;28;20042;-71
2022/05/26 03:12:30;;;;;;;20.42;4.53;;;14.70;99.90;;;;;;5017674;28;20124;-70
2022/05/26 03:14:56;;;;;;;20.30;4.38;;;14.70;99.90;;;;;;5018218;28;20029;-72
2022/05/26 03:17:22;;;;;;;17.52;4.63;;;14.70;99.90;;;;;;5018538;28;20034;-70
2022/05/26 03:19:48;;;;;;;15.63;4.28;;;14.60;99.90;;;;;;5018576;28;20069;-71
2022/05/26 03:22:15;;;;;;;15.73;4.13;;;14.60;99.90;;;;;;5018438;28;20034;-68
2022/05/26 03:24:40;;;;;;;18.45;4.82;;;14.60;99.90;;;;;;5017473;28;20037;-68
2022/05/26 03:27:07;;;;;;;16.77;4.82;;;14.60;99.90;;;;;;5017551;28;20465;-65
2022/05/26 03:29:33;;;;;;;19.60;5.20;;;14.60;99.90;;;;;;5018133;28;20080;-71
2022/05/26 03:31:59;;;;;;;18.60;4.30;;;14.60;99.90;;;;;;5018135;28;20060;-70
2022/05/26 03:42:39;;;;;;;20.85;4.53;;;14.40;99.90;;;;;;5017647;28;20054;-69
2022/05/26 03:45:06;;;;;;;20.85;4.78;;;14.40;99.90;;;;;;5000873;28;20049;-70
2022/05/26 03:47:32;;;;;;;23.40;5.00;;;14.40;99.90;;;;;;5017551;28;20337;-72
2022/05/26 03:49:58;;;;;;;22.23;5.72;;;14.30;99.90;;;;;;5017796;28;20045;-68
2022/05/26 03:52:24;;;;;;;24.40;5.50;;;14.40;99.90;;;;;;5018103;28;20393;-65
2022/05/26 03:54:50;;;;;;;21.95;5.28;;;14.40;99.90;;;;;;5000356;28;20038;-63
2022/05/26 03:57:27;;;;;;;20.45;5.18;;;14.40;99.90;;;;;;5018011;28;20088;-71
2022/05/26 03:59:53;;;;;;;20.33;5.18;;;14.30;99.90;;;;;;5017419;28;20026;-69
2022/05/26 04:02:19;;;;;;;18.35;5.20;;;14.30;99.90;;;;;;5018005;28;20057;-70
2022/05/26 04:04:45;;;;;;;20.65;5.55;;;14.40;99.90;;;;;;5016608;28;20057;-71
2022/05/26 04:07:12;;;;;;;23.83;6.25;;;14.30;99.90;;;;;;5017477;28;20026;-70
2022/05/26 04:09:39;;;;;;;22.35;5.22;;;14.30;99.90;;;;;;5000717;28;20038;-65
2022/05/26 04:12:07;;;;;;;21.38;5.15;;;14.40;99.90;;;;;;5000799;28;20041;-70
2022/05/26 04:14:33;;;;;;;21.80;5.13;;;14.50;99.90;;;;;;5017382;28;20049;-69
2022/05/26 04:16:59;;;;;;;22.58;5.63;;;14.50;99.90;;;;;;5016999;28;20418;-68
2022/05/26 04:19:25;;;;;;;22.75;4.95;;;14.40;99.90;;;;;;5000591;28;20112;-71
2022/05/26 04:24:37;;;;;;;19.25;5.50;;;14.40;99.90;;;;;;5017273;28;20038;-67
2022/05/26 04:27:04;;;;;;;20.02;5.18;;;14.40;99.90;;;;;;5016620;28;20053;-65
2022/05/26 04:29:32;;;;;;;21.25;4.88;;;14.40;99.90;;;;;;5016424;28;20309;-68
2022/05/26 04:31:58;;;;;;;21.00;5.35;;;14.60;99.90;;;;;;5017159;28;20436;-69
2022/05/26 04:34:25;;;;;;;20.00;4.80;;;14.60;99.90;;;;;;5017210;28;20038;-70
2022/05/26 04:36:51;;;;;;;21.45;5.43;;;14.60;99.90;;;;;;5016553;28;20030;-65
2022/05/26 04:39:17;;;;;;;18.00;5.30;;;14.60;99.90;;;;;;5000647;28;20113;-69
2022/05/26 04:41:43;;;;;;;22.00;4.70;;;14.60;99.90;;;;;;5017440;28;20025;-68
2022/05/26 04:44:10;;;;;;;19.10;4.78;;;14.50;99.90;;;;;;5017515;28;20045;-68
2022/05/26 04:46:36;;;;;;;15.63;4.97;;;14.30;99.90;;;;;;5017291;28;20042;-65
2022/05/26 04:49:03;;;;;;;22.70;5.50;;;14.30;99.90;;;;;;5000361;28;20034;-68
2022/05/26 04:51:29;;;;;;;16.92;4.28;;;14.30;99.90;;;;;;5017008;28;20038;-71
2022/05/26 04:53:55;;;;;;;20.48;5.28;;;14.30;99.90;;;;;;5016965;28;20042;-67
2022/05/26 04:56:23;;;;;;;22.73;5.97;;;14.40;99.90;;;;;;5016696;28;20041;-70
2022/05/26 04:58:51;;;;;;;19.08;5.32;;;14.40;99.90;;;;;;5017241;28;20048;-71
2022/05/26 05:01:19;;;;;;;20.27;4.85;;;14.60;99.90;;;;;;5016831;28;20116;-67
2022/05/26 05:03:46;;;;;;;20.42;5.60;;;14.60;99.90;;;;;;5017227;28;20033;-67
2022/05/26 05:06:13;;;;;;;20.42;5.68;;;14.80;99.90;;;;;;5017339;28;20052;-68
2022/05/26 05:08:41;;;;;;;22.20;6.30;;;14.80;99.90;;;;;;5016952;28;20038;-70
2022/05/26 05:11:07;;;;;;;21.02;6.15;;;14.80;99.90;;;;;;5017383;28;20298;-69
2022/05/26 05:13:33;;;;;;;23.73;6.65;;;14.80;99.90;;;;;;5016804;28;20275;-71
2022/05/26 05:16:17;;;;;;;24.17;6.55;;;14.80;99.90;;;;;;5015936;28;20029;-70
2022/05/26 05:18:44;;;;;;;21.98;6.60;;;14.70;99.90;;;;;;5019804;28;20068;-70
2022/05/26 05:21:12;;;;;;;24.83;7.32;;;14.80;99.90;;;;;;5019607;28;20038;-72
2022/05/26 05:23:41;;;;;;;23.42;7.38;;;14.80;99.90;;;;;;5020430;28;20044;-69
2022/05/26 05:26:13;;;;;;;23.90;7.40;;;14.70;99.90;;;;;;5019762;28;20331;-69
2022/05/26 05:28:41;;;;;;;25.95;8.15;;;14.60;99.90;;;;;;5020262;28;20042;-69
2022/05/26 05:31:17;;;;;;;20.05;7.85;;;14.70;99.90;;;;;;5019589;28;20066;-69
2022/05/26 05:34:35;;;;;;;22.83;7.68;;;14.80;99.90;;;;;;5020772;28;20263;-69
2022/05/26 05:37:01;;;;;;;23.73;8.38;;;14.90;99.90;;;;;;5018120;28;20042;-66
2022/05/26 05:39:28;;;;;;;28.08;9.07;;;15.10;99.90;;;;;;5019303;28;20034;-70
2022/05/26 05:41:55;;;;;;;22.23;8.38;;;15.30;99.90;;;;;;5019479;28;20029;-70
2022/05/26 05:44:22;;;;;;;25.38;9.43;;;15.40;99.90;;;;;;5003039;28;20065;-69
2022/05/26 05:46:53;;;;;;;20.67;8.88;;;15.30;99.90;;;;;;5020497;28;20406;-69
2022/05/26 05:49:26;;;;;;;20.17;8.38;;;15.10;99.90;;;;;;5019815;28;20041;-69
2022/05/26 05:51:52;;;;;;;24.63;9.60;;;15.10;99.90;;;;;;5019758;28;20040;-68
2022/05/26 05:54:19;;;;;;;23.90;9.57;;;15.30;99.90;;;;;;5002747;28;20397;-70
2022/05/26 05:56:46;;;;;;;22.00;10.07;;;15.40;99.90;;;;;;5019029;28;20034;-68
2022/05/26 05:59:12;;;;;;;21.45;9.23;;;15.30;99.90;;;;;;5019119;28;20037;-66
2022/05/26 06:01:38;;;;;;;19.13;9.45;;;15.40;99.90;;;;;;5019650;28;20275;-69
2022/05/26 06:04:04;;;;;;;24.67;9.52;;;15.70;99.90;;;;;;5018940;28;20306;-69
2022/05/26 06:06:39;;;;;;;24.80;9.77;;;15.80;99.90;;;;;;5018877;28;20030;-68
2022/05/26 06:09:06;;;;;;;21.17;9.68;;;15.70;99.90;;;;;;5019580;28;20034;-65
2022/05/26 06:11:31;;;;;;;19.83;8.80;;;15.60;99.90;;;;;;5019539;28;20050;-69
2022/05/26 06:13:57;;;;;;;25.02;9.65;;;15.70;99.90;;;;;;5019341;28;20070;-69
2022/05/26 06:16:24;;;;;;;23.10;9.50;;;15.90;99.90;;;;;;5019837;28;20122;-65
2022/05/26 06:18:50;;;;;;;23.05;9.57;;;15.80;99.90;;;;;;5018816;28;20124;-69
2022/05/26 06:21:16;;;;;;;24.00;10.55;;;15.80;99.90;;;;;;5018791;28;20042;-68
2022/05/26 06:23:42;;;;;;;18.42;8.88;;;15.80;99.90;;;;;;5018858;28;20318;-73
2022/05/26 06:26:08;;;;;;;22.05;9.18;;;15.90;99.90;;;;;;5018848;28;20065;-71
2022/05/26 06:31:20;;;;;;;20.38;9.10;;;16.50;99.90;;;;;;5019385;28;20033;-68
2022/05/26 06:39:09;;;;;;;17.45;8.38;;;16.90;99.90;;;;;;5018872;28;20460;-68
2022/05/26 06:44:19;;;;;;;22.40;8.73;;;16.50;99.90;;;;;;5018410;28;20038;-70
2022/05/26 06:46:45;;;;;;;25.23;9.32;;;16.50;99.90;;;;;;5018888;28;20030;-68
2022/05/26 06:49:11;;;;;;;18.52;8.77;;;16.20;99.90;;;;;;5018116;28;20112;-70
2022/05/26 06:51:39;;;;;;;17.17;9.05;;;16.40;99.90;;;;;;5018074;28;20122;-66
2022/05/26 06:54:05;;;;;;;18.27;9.32;;;16.20;99.90;;;;;;5018769;28;20361;-66
2022/05/26 06:56:32;;;;;;;19.65;9.05;;;16.40;99.90;;;;;;5017892;28;20041;-64
2022/05/26 06:58:57;;;;;;;23.35;9.48;;;16.50;99.90;;;;;;5018675;28;20026;-71
2022/05/26 07:01:23;;;;;;;20.60;8.73;;;16.60;99.90;;;;;;5017778;28;20057;-68
2022/05/26 07:03:49;;;;;;;19.00;8.23;;;16.50;99.90;;;;;;5001446;28;20041;-69
2022/05/26 07:06:17;;;;;;;16.75;8.10;;;16.40;99.90;;;;;;5018226;28;20029;-68
2022/05/26 07:08:47;;;;;;;14.25;7.25;;;16.00;99.90;;;;;;5018113;28;20472;-70
2022/05/26 07:11:14;;;;;;;19.95;7.50;;;16.20;99.90;;;;;;5018277;28;20037;-66
2022/05/26 07:13:40;;;;;;;11.85;6.38;;;16.20;99.90;;;;;;5018680;28;20305;-65
2022/05/26 07:16:07;;;;;;;15.02;6.90;;;16.40;99.90;;;;;;5018138;28;20096;-71
2022/05/26 07:18:33;;;;;;;17.63;7.05;;;16.50;99.90;;;;;;5001457;28;20076;-69
2022/05/26 07:21:06;;;;;;;15.25;6.97;;;16.50;99.90;;;;;;5018066;28;20022;-69
2022/05/26 07:23:33;;;;;;;14.95;6.80;;;16.70;99.90;;;;;;5018350;28;20026;-70
2022/05/26 07:25:59;;;;;;;14.10;5.93;;;16.70;99.90;;;;;;5018278;28;20120;-70
2022/05/26 07:28:25;;;;;;;11.38;5.90;;;17.00;99.90;;;;;;5018228;28;20087;-69
2022/05/26 07:30:53;;;;;;;13.55;5.80;;;17.00;99.90;;;;;;5018066;28;20133;-67
2022/05/26 07:33:19;;;;;;;14.85;6.03;;;16.70;99.90;;;;;;5001513;28;20302;-71
2022/05/26 07:35:46;;;;;;;14.27;5.63;;;16.60;99.90;;;;;;5017997;28;20026;-68
2022/05/26 07:41:17;;;;;;;14.65;5.72;;;16.50;99.90;;;;;;5017773;28;20128;-65
2022/05/26 07:43:47;;;;;;;11.35;4.90;;;16.60;99.90;;;;;;5018702;28;20124;-67
2022/05/26 07:46:15;;;;;;;12.82;4.97;;;16.80;99.90;;;;;;5017880;28;20025;-71
2022/05/26 07:48:40;;;;;;;14.15;5.70;;;16.90;99.90;;;;;;5017773;28;20447;-68
2022/05/26 07:51:06;;;;;;;14.88;5.03;;;17.20;99.90;;;;;;5017077;28;20140;-67
2022/05/26 07:53:32;;;;;;;11.15;5.40;;;17.10;99.90;;;;;;5016943;28;20368;-69
2022/05/26 07:56:00;;;;;;;8.52;4.82;;;16.90;99.90;;;;;;5016992;28;20049;-68
2022/05/26 07:58:25;;;;;;;10.80;4.40;;;17.10;99.90;;;;;;5000837;28;20185;-68
2022/05/26 08:00:53;;;;;;;13.40;4.97;;;17.20;99.90;;;;;;5016597;28;20398;-68
2022/05/26 08:03:19;;;;;;;12.60;5.47;;;17.20;99.90;;;;;;5000922;28;20026;-70
2022/05/26 08:05:45;;;;;;;13.95;5.80;;;17.60;99.90;;;;;;5016944;28;20042;-68
2022/05/26 08:08:10;;;;;;;10.35;5.25;;;17.60;99.90;;;;;;5017436;28;20045;-69
2022/05/26 08:10:37;;;;;;;13.98;5.93;;;17.80;99.90;;;;;;5000447;28;20432;-69
2022/05/26 08:13:03;;;;;;;9.23;4.45;;;17.60;99.90;;;;;;5016779;28;20116;-68
2022/05/26 08:15:31;;;;;;;10.80;5.88;;;17.60;99.90;;;;;;5017499;28;20478;-69
2022/05/26 08:17:57;;;;;;;11.43;6.25;;;17.70;99.90;;;;;;5016693;28;20042;-69
2022/05/26 08:20:23;;;;;;;15.85;6.47;;;18.00;99.90;;;;;;5000308;28;20030;-72
2022/05/26 08:22:49;;;;;;;10.90;5.93;;;17.70;99.90;;;;;;5016520;28;20033;-68
2022/05/26 08:25:15;;;;;;;15.77;6.63;;;17.60;99.90;;;;;;5000700;28;20040;-69
2022/05/26 08:27:41;;;;;;;15.10;6.50;;;17.40;99.90;;;;;;5000127;28;20041;-67
2022/05/26 08:30:07;;;;;;;12.90;5.43;;;17.80;99.90;;;;;;5017238;28;20111;-65
2022/05/26 08:32:33;;;;;;;10.57;5.78;;;17.90;99.90;;;;;;5017088;28;20026;-68
2022/05/26 08:35:02;;;;;;;8.57;5.70;;;18.10;99.90;;;;;;4999993;28;20080;-65
2022/05/26 08:37:28;;;;;;;11.85;5.95;;;18.30;99.90;;;;;;5017318;28;20025;-63
2022/05/26 08:39:54;;;;;;;15.15;5.60;;;18.40;99.90;;;;;;5017056;28;20045;-68
2022/05/26 08:42:32;;;;;;;13.32;6.20;;;18.70;99.90;;;;;;5016325;28;20038;-71
2022/05/26 08:45:02;;;;;;;11.55;5.95;;;18.50;99.90;;;;;;5016615;28;20045;-70
2022/05/26 08:47:35;;;;;;;14.15;5.65;;;18.40;99.90;;;;;;5017323;28;20042;-68
2022/05/26 08:50:18;;;;;;;11.77;5.82;;;18.00;99.90;;;;;;5000268;28;20444;-64
2022/05/26 08:52:46;;;;;;;12.82;5.85;;;18.10;99.90;;;;;;5018653;28;20038;-67
2022/05/26 08:55:18;;;;;;;11.68;5.47;;;18.00;99.90;;;;;;5020942;28;20091;-65
2022/05/26 08:57:49;;;;;;;10.15;4.78;;;17.70;99.90;;;;;;5020280;28;20037;-66
2022/05/26 09:00:20;;;;;;;10.48;4.60;;;18.30;99.90;;;;;;5020827;28;20033;-65
2022/05/26 09:02:46;;;;;;;12.82;4.20;;;18.50;99.90;;;;;;5020122;28;20136;-70
2022/05/26 09:05:20;;;;;;;7.30;3.97;;;19.00;99.90;;;;;;5020887;28;20348;-65
2022/05/26 09:13:38;;;;;;;6.45;3.42;;;18.30;99.90;;;;;;5020733;28;20059;-68
2022/05/26 09:16:08;;;;;;;8.85;3.70;;;18.00;99.90;;;;;;5020037;28;20037;-67
2022/05/26 09:18:35;;;;;;;7.10;3.40;;;18.10;99.90;;;;;;5020562;28;20076;-67
2022/05/26 09:21:16;;;;;;;10.38;3.60;;;18.00;99.90;;;;;;5020514;28;20026;-71
2022/05/26 09:23:44;;;;;;;8.23;2.88;;;18.00;99.90;;;;;;5019922;28;20302;-67
2022/05/26 09:26:15;;;;;;;9.45;3.60;;;18.20;99.90;;;;;;5019934;28;20034;-67
2022/05/26 09:28:48;;;;;;;8.43;3.10;;;18.60;99.90;;;;;;5020431;28;20033;-65
2022/05/26 09:31:25;;;;;;;11.02;2.67;;;19.20;99.90;;;;;;5019430;28;20105;-68
2022/05/26 09:34:16;;;;;;;7.80;2.67;;;19.70;99.90;;;;;;5020241;28;20065;-67
2022/05/26 09:36:53;;;;;;;9.20;2.42;;;19.10;99.90;;;;;;5020302;28;20068;-67
2022/05/26 09:39:22;;;;;;;9.50;2.40;;;18.80;99.90;;;;;;5003056;28;20030;-66
2022/05/26 09:41:51;;;;;;;7.57;2.20;;;18.70;99.90;;;;;;5020334;28;20175;-70
2022/05/26 09:44:42;;;;;;;8.43;2.05;;;19.00;99.90;;;;;;5019448;28;20124;-65
2022/05/26 09:47:37;;;;;;;6.57;2.22;;;18.80;99.90;;;;;;5020228;28;20041;-68
2022/05/26 09:50:09;;;;;;;9.35;2.28;;;19.10;99.90;;;;;;5020211;28;20037;-67
2022/05/26 09:52:53;;;;;;;;;;;19.20;99.90;;;;;;5019658;28;20037;-69
2022/05/26 09:55:26;;;;;;;6.38;2.08;;;19.40;99.90;;;;;;5020642;28;20008;-68
2022/05/26 09:58:09;;;;;;;;;;;19.20;99.90;;;;;;5019979;28;20080;-65
2022/05/26 10:00:43;;;;;;;7.78;2.83;;;19.20;99.90;;;;;;5019872;28;19918;-66
2022/05/26 10:03:18;;;;;;;8.88;2.63;;;19.30;99.90;;;;;;5018796;28;20121;-68
2022/05/26 10:06:08;;;;;;;8.35;2.55;;;19.30;99.90;;;;;;5019625;28;20036;-67
2022/05/26 10:08:43;;;;;;;7.30;2.65;;;19.30;99.90;;;;;;5002649;28;20025;-65
2022/05/26 10:11:30;;;;;;;7.10;2.20;;;19.20;99.90;;;;;;5018749;28;20034;-69
2022/05/26 10:14:34;;;;;;;6.72;2.30;;;19.50;99.90;;;;;;5019490;28;20076;-67
2022/05/26 10:17:19;;;;;;;9.25;1.90;;;19.90;99.90;;;;;;5019609;28;20026;-70
2022/05/26 10:20:10;;;;;;;7.20;2.22;;;19.70;99.90;;;;;;5019388;28;20088;-69
2022/05/26 10:22:38;;;;;;;7.32;2.40;;;19.70;99.90;;;;;;5018668;28;20046;-66
2022/05/26 10:25:33;;;;;;;8.73;2.42;;;19.90;99.90;;;;;;5019348;28;20108;-68
2022/05/26 10:28:02;;;;;;;8.98;2.22;;;20.00;99.90;;;;;;5018920;28;20045;-66
2022/05/26 10:31:04;;;;;;;7.03;1.83;;;20.00;99.90;;;;;;5019407;28;20053;-68
2022/05/26 10:33:53;;;;;;;7.60;2.05;;;20.00;99.90;;;;;;4998002;28;20287;-67
2022/05/26 10:37:01;;;;;;;7.10;2.20;;;20.20;99.90;;;;;;5019101;28;20366;-66
2022/05/26 10:39:57;;;;;;;7.53;1.77;;;20.40;99.90;;;;;;4978711;28;20035;-65
2022/05/26 10:42:30;;;;;;;6.63;1.90;;;20.50;99.90;;;;;;4992034;28;20057;-64
2022/05/26 10:45:16;;;;;;;5.43;1.83;;;20.40;99.90;;;;;;5018886;28;20038;-66
2022/05/26 10:48:07;;;;;;;6.80;1.67;;;20.50;99.90;;;;;;5001615;28;20034;-66
2022/05/26 10:50:42;;;;;;;6.57;1.52;;;20.00;99.90;;;;;;5019035;28;20026;-69
2022/05/26 10:53:29;;;;;;;5.72;1.63;;;19.80;99.90;;;;;;5017991;28;20030;-70
2022/05/26 10:56:04;;;;;;;5.90;1.70;;;20.20;99.90;;;;;;5018733;28;20022;-67
2022/05/26 10:58:37;;;;;;;5.43;1.90;;;20.60;99.90;;;;;;5018729;28;20037;-67
2022/05/26 11:01:22;;;;;;;6.97;2.58;;;20.60;99.90;;;;;;5017791;28;20314;-69
2022/05/26 11:03:53;;;;;;;3.53;1.50;;;20.00;99.90;;;;;;5018603;28;20048;-69
2022/05/26 11:06:26;;;;;;;5.95;1.55;;;20.80;99.90;;;;;;5018962;28;20383;-64
2022/05/26 11:08:58;;;;;;;5.38;1.23;;;21.40;99.90;;;;;;5017857;28;20022;-66
2022/05/26 11:11:36;;;;;;;4.35;1.50;;;22.40;99.90;;;;;;5018500;28;20028;-69
2022/05/26 11:14:05;;;;;;;5.30;1.35;;;23.10;99.90;;;;;;5018316;28;20414;-68
2022/05/26 11:19:39;;;;;;;4.80;1.50;;;23.40;99.90;;;;;;5018436;28;20342;-67
2022/05/26 11:22:05;;;;;;;4.88;1.60;;;22.60;99.90;;;;;;5018277;28;20298;-64
2022/05/26 11:24:32;;;;;;;4.85;1.55;;;21.80;99.90;;;;;;5018867;28;20141;-66
2022/05/26 11:27:12;;;;;;;5.00;1.48;;;21.90;99.90;;;;;;5018047;28;20065;-68
2022/05/26 11:29:45;;;;;;;4.72;1.40;;;22.30;99.90;;;;;;5018203;28;20030;-65
2022/05/26 11:37:59;;;;;;;3.28;1.15;;;24.40;99.90;;;;;;5018059;28;20297;-67
2022/05/26 11:40:33;;;;;;;4.57;1.30;;;24.30;99.90;;;;;;5017362;28;20029;-66
2022/05/26 11:43:00;;;;;;;3.38;1.20;;;24.40;99.90;;;;;;5017954;28;20025;-67
2022/05/26 11:45:29;;;;;;;6.35;1.38;;;23.00;99.90;;;;;;5017910;28;20026;-66
2022/05/26 11:48:26;;;;;;;4.82;1.30;;;23.70;99.90;;;;;;5017169;28;20037;-67
2022/05/26 11:50:58;;;;;;;8.05;1.73;;;24.40;99.90;;;;;;5017850;28;20034;-65
2022/05/26 11:53:33;;;;;;;3.78;1.33;;;23.80;99.90;;;;;;5017739;28;20037;-65
2022/05/26 11:56:04;;;;;;;5.88;1.40;;;24.00;99.90;;;;;;5018315;28;20374;-63
2022/05/26 11:58:42;;;;;;;8.35;1.58;;;24.60;99.90;;;;;;5017987;28;20084;-64
2022/05/26 12:01:16;;;;;;;5.13;1.10;;;23.90;99.90;;;;;;5016660;28;20119;-63
2022/05/26 12:04:13;;;;;;;4.40;1.35;;;24.80;99.90;;;;;;5017592;28;20029;-67
2022/05/26 12:06:42;;;;;;;2.67;1.00;;;25.70;99.90;;;;;;5016672;28;20034;-70
2022/05/26 12:09:18;;;;;;;4.03;1.20;;;25.20;99.90;;;;;;5016865;28;20446;-70
2022/05/26 12:12:15;;;;;;;3.72;1.20;;;26.10;99.90;;;;;;5016820;28;20433;-64
2022/05/26 12:15:03;;;;;;;4.82;1.25;;;26.60;99.90;;;;;;5016628;28;20140;-67
2022/05/26 12:17:43;;;;;;;2.67;1.05;;;26.00;99.90;;;;;;5017400;28;20022;-66
2022/05/26 12:20:12;;;;;;;3.70;1.20;;;24.50;99.90;;;;;;5017955;28;20046;-68
2022/05/26 12:23:01;;;;;;;5.60;1.52;;;24.30;99.90;;;;;;5017420;28;20021;-63
2022/05/26 12:25:41;;;;;;;4.18;1.27;;;24.90;99.90;;;;;;5011892;28;20107;-68
2022/05/26 12:28:10;;;;;;;4.30;1.30;;;25.00;99.90;;;;;;5016741;28;20445;-65
2022/05/26 12:30:42;;;;;;;5.95;1.70;;;25.00;99.90;;;;;;5017176;28;20026;-67
2022/05/26 12:33:19;;;;;;;5.13;1.13;;;22.80;99.90;;;;;;5015971;28;20044;-70
2022/05/26 12:36:04;;;;;;;5.07;1.08;;;22.10;99.90;;;;;;5017249;28;20038;-70
2022/05/26 12:38:57;;;;;;;6.53;1.30;;;22.10;99.90;;;;;;5017146;28;20113;-65
2022/05/26 12:41:44;;;;;;;3.35;1.10;;;23.60;99.90;;;;;;5017152;28;20290;-69
2022/05/26 12:44:28;;;;;;;6.13;1.23;;;24.30;99.90;;;;;;5017224;28;20092;-65
2022/05/26 12:47:36;;;;;;;5.68;1.35;;;23.60;99.90;;;;;;5017118;28;20104;-63
2022/05/26 12:50:15;;;;;;;3.60;1.02;;;24.80;99.90;;;;;;5017218;28;20040;-66
2022/05/26 12:52:57;;;;;;;4.38;1.10;;;24.60;99.90;;;;;;5017058;28;20041;-68
2022/05/26 12:56:00;;;;;;;4.60;1.20;;;24.30;99.90;;;;;;5016963;28;20060;-66
2022/05/26 12:58:32;;;;;;;3.72;1.00;;;24.30;99.90;;;;;;5017274;28;20060;-64
2022/05/26 13:01:01;;;;;;;4.03;1.38;;;23.90;99.90;;;;;;5016790;28;20038;-69
2022/05/26 13:03:43;;;;;;;4.63;1.20;;;23.80;99.90;;;;;;5016900;28;20041;-64
2022/05/26 13:06:21;;;;;;;3.30;0.95;;;24.60;99.90;;;;;;5016976;28;20038;-66
2022/05/26 13:08:54;;;;;;;4.25;1.13;;;24.70;99.90;;;;;;5016949;28;20286;-66
2022/05/26 13:11:26;;;;;;;4.57;1.15;;;24.80;99.90;;;;;;4999849;28;20083;-68
2022/05/26 13:13:54;;;;;;;3.72;1.10;;;25.10;99.90;;;;;;5016975;28;20030;-67
2022/05/26 13:16:30;;;;;;;3.42;1.10;;;24.30;99.90;;;;;;5016139;28;20374;-67
2022/05/26 13:19:13;;;;;;;3.85;1.15;;;23.80;99.90;;;;;;5017121;28;20393;-67
2022/05/26 13:21:42;;;;;;;4.38;1.38;;;23.20;99.90;;;;;;5017256;28;20029;-69
2022/05/26 13:24:15;;;;;;;4.97;0.98;;;22.30;99.90;;;;;;5016976;28;20038;-69
2022/05/26 13:26:43;;;;;;;7.78;1.38;;;23.00;99.90;;;;;;5016261;28;20030;-63
2022/05/26 13:29:10;;;;;;;5.05;0.85;;;23.70;99.90;;;;;;5016714;28;20034;-68
2022/05/26 13:34:27;;;;;;;5.88;1.35;;;24.00;99.90;;;;;;5016189;28;20473;-69
2022/05/26 13:36:53;;;;;;;3.38;1.02;;;23.90;99.90;;;;;;5016056;28;20178;-68
2022/05/26 13:39:23;;;;;;;3.95;0.93;;;24.30;99.90;;;;;;5018907;28;20119;-70
2022/05/26 13:41:51;;;;;;;4.35;1.08;;;24.50;99.90;;;;;;5020235;28;20030;-67
2022/05/26 13:44:37;;;;;;;5.60;1.10;;;25.90;99.90;;;;;;5020289;28;20037;-66
2022/05/26 13:47:06;;;;;;;4.10;1.33;;;25.90;99.90;;;;;;5020197;28;20026;-69
2022/05/26 13:49:39;;;;;;;3.58;0.98;;;24.40;99.90;;;;;;5019411;28;20096;-66
2022/05/26 13:52:24;;;;;;;3.92;1.08;;;24.40;99.90;;;;;;5020011;28;20073;-66
2022/05/26 13:54:54;;;;;;;3.38;1.10;;;24.80;99.90;;;;;;5020191;28;20026;-65